createdAt,value
2017-09-29T04:04:52.696Z,99.90
2017-09-29T04:07:20.244Z,99.90
2017-09-29T04:09:48.550Z,99.90
2017-09-29T04:12:16.076Z,99.90
2017-09-29T04:14:44.383Z,99.90
2017-09-29T04:17:11.900Z,99.90
2017-09-29T04:19:39.423Z,99.90
2017-09-29T04:22:06.952Z,99.90
2017-09-29T04:24:34.507Z,99.90
2017-09-29T04:27:02.043Z,99.90
2017-09-29T04:29:30.384Z,99.90
2017-09-29T04:31:57.906Z,99.90
2017-09-29T04:34:25.407Z,99.90
2017-09-29T04:36:52.940Z,99.90
2017-09-29T04:39:20.493Z,99.90
2017-09-29T04:41:48.140Z,99.90
2017-09-29T04:44:16.427Z,99.90
2017-09-29T04:46:43.988Z,99.90
2017-09-29T04:49:11.640Z,99.90
2017-09-29T04:51:39.173Z,99.90
2017-09-29T04:54:06.701Z,99.90
2017-09-29T04:56:34.326Z,99.90
2017-09-29T04:59:02.619Z,99.90
2017-09-29T05:01:30.170Z,99.90
2017-09-29T05:03:57.773Z,99.90
2017-09-29T05:06:25.333Z,99.90
2017-09-29T05:08:52.842Z,99.90
2017-09-29T05:11:21.146Z,99.90
2017-09-29T05:13:48.673Z,99.90
2017-09-29T05:16:16.371Z,99.90
2017-09-29T05:18:43.957Z,99.90
2017-09-29T05:21:11.508Z,99.90
2017-09-29T05:23:39.036Z,99.90
2017-09-29T05:26:06.577Z,99.90
2017-09-29T05:28:35.056Z,99.90
2017-09-29T05:31:03.388Z,99.90
2017-09-29T05:33:30.908Z,99.90
2017-09-29T05:35:58.440Z,99.90
2017-09-29T05:38:25.976Z,99.90
2017-09-29T05:40:53.490Z,99.90
2017-09-29T05:43:21.427Z,99.90
2017-09-29T05:45:49.100Z,99.90
2017-09-29T05:48:16.635Z,99.90
2017-09-29T05:50:44.155Z,99.90
2017-09-29T05:53:11.932Z,99.90
2017-09-29T05:55:39.500Z,99.90
2017-09-29T05:58:07.013Z,99.90
2017-09-29T06:00:35.469Z,99.90
2017-09-29T06:03:03.267Z,99.90
2017-09-29T06:05:30.793Z,99.90
2017-09-29T06:07:58.536Z,99.70
2017-09-29T06:10:26.824Z,99.70
2017-09-29T06:12:54.526Z,99.70
2017-09-29T06:15:22.171Z,99.70
2017-09-29T06:17:49.717Z,99.00
2017-09-29T06:20:17.241Z,97.80
2017-09-29T06:22:44.962Z,97.70
2017-09-29T06:25:12.516Z,97.00
2017-09-29T06:27:40.059Z,97.00
2017-09-29T06:30:07.752Z,98.00
2017-09-29T06:32:35.264Z,98.30
2017-09-29T06:35:02.808Z,98.30
2017-09-29T06:37:30.431Z,98.50
2017-09-29T06:39:57.985Z,98.80
2017-09-29T06:42:25.504Z,98.70
2017-09-29T06:44:53.884Z,98.90
2017-09-29T06:47:21.472Z,98.90
2017-09-29T06:49:49.071Z,99.20
2017-09-29T06:52:17.409Z,98.10
2017-09-29T06:54:45.062Z,98.10
2017-09-29T06:57:12.750Z,96.90
2017-09-29T06:59:40.265Z,96.90
2017-09-29T07:02:07.796Z,97.80
2017-09-29T07:04:36.184Z,97.60
2017-09-29T07:07:03.745Z,97.50
2017-09-29T07:09:31.368Z,97.50
2017-09-29T07:11:59.256Z,97.40
2017-09-29T07:14:27.656Z,95.40
2017-09-29T07:16:55.335Z,95.30
2017-09-29T07:19:22.871Z,95.90
2017-09-29T07:21:51.173Z,96.10
2017-09-29T07:24:18.851Z,96.10
2017-09-29T07:26:46.742Z,95.70
2017-09-29T07:29:17.907Z,95.70
2017-09-29T07:31:46.772Z,96.20
2017-09-29T07:34:14.403Z,96.10
2017-09-29T07:36:42.060Z,95.80
2017-09-29T07:39:09.576Z,97.00
2017-09-29T07:41:37.152Z,95.90
2017-09-29T07:44:05.712Z,96.90
2017-09-29T07:46:33.400Z,97.20
2017-09-29T07:49:01.681Z,96.90
2017-09-29T07:51:29.326Z,96.90
2017-09-29T07:53:56.838Z,95.80
2017-09-29T07:56:24.482Z,97.10
2017-09-29T07:58:52.108Z,95.40
2017-09-29T08:01:19.961Z,93.20
2017-09-29T08:03:47.539Z,95.00
2017-09-29T08:06:15.050Z,94.30
2017-09-29T08:08:42.828Z,94.50
2017-09-29T08:11:10.360Z,94.70
2017-09-29T08:13:38.071Z,94.70
2017-09-29T08:16:05.878Z,95.10
2017-09-29T08:18:34.158Z,95.00
2017-09-29T08:21:02.499Z,96.00
2017-09-29T08:23:30.028Z,96.00
2017-09-29T08:25:58.326Z,94.90
2017-09-29T08:28:25.871Z,94.90
2017-09-29T08:30:53.567Z,96.00
2017-09-29T08:33:21.172Z,94.70
2017-09-29T08:35:48.825Z,95.60
2017-09-29T08:38:17.150Z,95.70
2017-09-29T08:40:44.732Z,95.70
2017-09-29T08:43:12.280Z,94.90
2017-09-29T08:45:39.836Z,94.90
2017-09-29T08:48:07.363Z,94.10
2017-09-29T08:50:34.944Z,94.20
2017-09-29T08:53:02.456Z,94.80
2017-09-29T08:55:30.843Z,92.60
2017-09-29T08:57:59.164Z,92.80
2017-09-29T09:00:26.964Z,92.80
2017-09-29T09:02:54.471Z,92.50
2017-09-29T09:05:22.083Z,91.80
2017-09-29T09:07:49.666Z,91.50
2017-09-29T09:10:17.948Z,90.60
2017-09-29T09:12:46.415Z,89.30
2017-09-29T09:15:13.920Z,89.30
2017-09-29T09:17:41.505Z,90.10
2017-09-29T09:20:09.107Z,88.90
2017-09-29T09:22:37.399Z,88.40
2017-09-29T09:25:04.927Z,88.30
2017-09-29T09:27:32.437Z,87.40
2017-09-29T09:30:00.120Z,84.40
2017-09-29T09:32:27.627Z,86.80
2017-09-29T09:34:56.019Z,86.90
2017-09-29T09:37:24.415Z,84.30
2017-09-29T09:39:52.020Z,84.20
2017-09-29T09:42:19.568Z,81.90
2017-09-29T09:44:47.080Z,83.00
2017-09-29T09:47:15.667Z,83.00
2017-09-29T09:49:43.180Z,83.00
2017-09-29T09:52:10.731Z,82.50
2017-09-29T09:54:38.231Z,80.80
2017-09-29T09:57:06.560Z,80.40
2017-09-29T09:59:34.072Z,80.30
2017-09-29T10:02:02.481Z,80.50
2017-09-29T10:04:30.050Z,80.10
2017-09-29T10:06:57.854Z,80.30
2017-09-29T10:09:25.409Z,78.20
2017-09-29T10:11:52.920Z,79.30
2017-09-29T10:14:20.599Z,74.20
2017-09-29T10:16:48.415Z,73.70
2017-09-29T10:19:15.939Z,75.70
2017-09-29T10:21:43.739Z,77.40
2017-09-29T10:24:11.277Z,76.00
2017-09-29T10:26:38.788Z,78.60
2017-09-29T10:29:06.344Z,82.20
2017-09-29T10:31:34.746Z,81.80
2017-09-29T10:34:02.264Z,81.70
2017-09-29T10:36:29.915Z,75.10
2017-09-29T10:38:57.424Z,74.20
2017-09-29T10:41:25.036Z,77.50
2017-09-29T10:43:52.547Z,74.40
2017-09-29T10:46:20.172Z,77.10
2017-09-29T10:48:47.817Z,79.20
2017-09-29T10:51:15.341Z,80.00
2017-09-29T10:53:43.008Z,79.40
2017-09-29T10:56:10.515Z,81.00
2017-09-29T10:58:38.043Z,78.00
2017-09-29T11:01:05.555Z,77.40
2017-09-29T11:03:33.867Z,77.60
2017-09-29T11:06:01.440Z,77.40
2017-09-29T11:08:28.979Z,77.60
2017-09-29T11:10:57.247Z,79.00
2017-09-29T11:13:24.807Z,78.90
2017-09-29T11:15:52.403Z,78.30
2017-09-29T11:18:19.935Z,78.50
2017-09-29T11:20:47.471Z,81.20
2017-09-29T11:23:15.777Z,81.40
2017-09-29T11:25:43.404Z,81.30
2017-09-29T11:28:11.863Z,80.30
2017-09-29T11:30:39.604Z,80.20
2017-09-29T11:33:07.133Z,81.50
2017-09-29T11:35:34.695Z,80.90
2017-09-29T11:38:02.407Z,80.70
2017-09-29T11:40:29.971Z,81.30
2017-09-29T11:42:57.479Z,82.30
2017-09-29T11:45:25.118Z,82.10
2017-09-29T11:47:53.515Z,85.20
2017-09-29T11:50:21.028Z,85.30
2017-09-29T11:52:48.573Z,86.10
2017-09-29T11:55:16.190Z,84.00
2017-09-29T11:57:44.547Z,86.20
2017-09-29T12:00:12.225Z,86.10
2017-09-29T12:02:40.593Z,86.30
2017-09-29T12:05:08.952Z,85.00
2017-09-29T12:07:36.505Z,85.00
2017-09-29T12:10:04.055Z,84.80
2017-09-29T12:12:31.742Z,85.30
2017-09-29T12:15:00.210Z,84.00
2017-09-29T12:17:27.723Z,83.80
2017-09-29T12:19:55.281Z,83.80
2017-09-29T12:22:23.009Z,84.80
2017-09-29T12:24:50.525Z,85.80
2017-09-29T12:27:18.269Z,85.10
2017-09-29T12:29:45.837Z,84.50
2017-09-29T12:32:13.436Z,83.30
2017-09-29T12:34:41.027Z,84.50
2017-09-29T12:37:08.635Z,82.30
2017-09-29T12:39:36.323Z,83.30
2017-09-29T12:42:03.871Z,85.60
2017-09-29T12:44:31.473Z,83.90
2017-09-29T12:46:59.028Z,84.90
2017-09-29T12:49:26.565Z,83.00
2017-09-29T12:51:54.094Z,83.10
2017-09-29T12:54:21.650Z,85.20
2017-09-29T12:56:49.175Z,85.30
2017-09-29T12:59:16.955Z,87.00
2017-09-29T13:01:45.291Z,87.60
2017-09-29T13:04:12.810Z,87.50
2017-09-29T13:06:40.350Z,89.50
2017-09-29T13:09:08.638Z,88.60
2017-09-29T13:11:37.040Z,89.70
2017-09-29T13:14:04.577Z,89.60
2017-09-29T13:16:32.942Z,88.20
2017-09-29T13:19:00.510Z,88.10
2017-09-29T13:21:28.798Z,89.00
2017-09-29T13:23:57.120Z,89.00
2017-09-29T13:26:24.645Z,88.90
2017-09-29T13:28:52.324Z,90.60
2017-09-29T13:31:19.949Z,90.20
2017-09-29T13:33:48.357Z,89.70
2017-09-29T13:36:16.055Z,89.60
2017-09-29T13:38:43.603Z,90.20
2017-09-29T13:41:11.186Z,89.30
2017-09-29T13:43:38.748Z,89.80
2017-09-29T13:46:06.312Z,91.10
2017-09-29T13:48:33.840Z,91.30
2017-09-29T13:51:01.429Z,91.40
2017-09-29T13:53:28.980Z,91.20
2017-09-29T13:55:56.621Z,90.70
2017-09-29T13:58:24.162Z,90.70
2017-09-29T14:00:51.809Z,91.70
2017-09-29T14:03:20.182Z,91.70
2017-09-29T14:05:48.548Z,91.20
2017-09-29T14:08:16.083Z,91.20
2017-09-29T14:10:43.645Z,90.90
2017-09-29T14:13:11.173Z,91.60
2017-09-29T14:15:38.774Z,90.90
2017-09-29T14:18:06.325Z,91.20
2017-09-29T14:20:33.841Z,91.70
2017-09-29T14:23:01.461Z,92.30
2017-09-29T14:25:29.143Z,92.20
2017-09-29T14:27:56.940Z,93.00
2017-09-29T14:30:24.496Z,92.80
2017-09-29T14:32:52.214Z,93.30
2017-09-29T14:35:19.836Z,93.00
2017-09-29T14:37:47.628Z,92.90
2017-09-29T14:40:15.269Z,92.80
2017-09-29T14:42:42.791Z,92.10
2017-09-29T14:45:11.072Z,92.30
2017-09-29T14:47:39.580Z,92.60
2017-09-29T14:50:07.124Z,92.60
2017-09-29T14:52:34.692Z,93.50
2017-09-29T14:55:02.247Z,93.80
2017-09-29T14:57:30.758Z,94.20
2017-09-29T14:59:58.612Z,94.20
2017-09-29T15:02:26.143Z,94.60
2017-09-29T15:04:54.444Z,94.40
2017-09-29T15:07:22.275Z,94.40
2017-09-29T15:09:49.858Z,94.90
2017-09-29T15:12:18.240Z,94.90
2017-09-29T15:14:45.940Z,94.80
2017-09-29T15:17:13.479Z,95.10
2017-09-29T15:19:40.996Z,94.90
2017-09-29T15:22:08.594Z,95.60
2017-09-29T15:24:36.360Z,95.10
2017-09-29T15:27:03.964Z,95.40
2017-09-29T15:29:32.371Z,95.30
2017-09-29T15:31:59.943Z,95.30
2017-09-29T15:34:28.337Z,95.20
2017-09-29T15:36:56.612Z,94.60
2017-09-29T15:39:25.047Z,95.10
2017-09-29T15:41:53.412Z,95.00
2017-09-29T15:44:20.930Z,94.50
2017-09-29T15:46:49.246Z,94.80
2017-09-29T15:49:16.767Z,94.80
2017-09-29T15:51:44.425Z,95.20
2017-09-29T15:54:12.715Z,95.30
2017-09-29T15:56:40.292Z,95.20
2017-09-29T15:59:07.844Z,95.10
2017-09-29T16:01:35.482Z,95.80
2017-09-29T16:04:03.771Z,96.70
2017-09-29T16:06:32.080Z,97.60
2017-09-29T16:08:59.606Z,97.50
2017-09-29T16:11:28.019Z,98.00
2017-09-29T16:13:55.760Z,98.00
2017-09-29T16:16:23.304Z,97.90
2017-09-29T16:18:51.588Z,98.60
2017-09-29T16:21:19.231Z,98.50
2017-09-29T16:23:46.748Z,98.70
2017-09-29T16:26:14.323Z,98.70
2017-09-29T16:28:41.905Z,98.90
2017-09-29T16:31:09.541Z,99.30
2017-09-29T16:33:37.179Z,99.50
2017-09-29T16:36:04.698Z,99.90
2017-09-29T16:38:32.218Z,99.90
2017-09-29T16:40:59.839Z,99.90
2017-09-29T16:43:28.280Z,99.90
2017-09-29T16:45:55.816Z,99.90
2017-09-29T16:48:23.575Z,99.90
2017-09-29T16:50:51.119Z,99.90
2017-09-29T16:53:18.698Z,99.90
2017-09-29T16:55:46.226Z,99.90
2017-09-29T16:58:14.716Z,99.90
2017-09-29T17:00:43.051Z,99.90
2017-09-29T17:03:10.598Z,99.90
2017-09-29T17:05:38.143Z,99.90
2017-09-29T17:08:05.690Z,99.90
2017-09-29T17:10:33.345Z,99.90
2017-09-29T17:13:00.895Z,99.90
2017-09-29T17:15:30.228Z,99.90
2017-09-29T17:17:57.965Z,99.90
2017-09-29T17:20:25.519Z,99.90
2017-09-29T17:22:53.818Z,99.90
2017-09-29T17:25:21.367Z,99.90
2017-09-29T17:27:48.981Z,99.90
2017-09-29T17:30:16.519Z,99.90
2017-09-29T17:32:44.062Z,99.90
2017-09-29T17:35:11.665Z,99.90
2017-09-29T17:37:39.238Z,99.90
2017-09-29T17:40:07.879Z,99.90
2017-09-29T17:42:35.480Z,99.90
2017-09-29T17:45:03.174Z,99.90
2017-09-29T17:47:31.715Z,99.90
2017-09-29T17:49:59.236Z,99.90
2017-09-29T17:52:26.751Z,99.90
2017-09-29T17:54:54.292Z,99.90
2017-09-29T17:57:21.867Z,99.90
2017-09-29T17:59:49.395Z,99.90
2017-09-29T18:02:16.946Z,99.90
2017-09-29T18:04:44.569Z,99.90
2017-09-29T18:07:12.872Z,99.90
2017-09-29T18:09:40.440Z,99.90
2017-09-29T18:12:08.116Z,99.90
2017-09-29T18:14:35.745Z,99.90
2017-09-29T18:17:04.025Z,99.90
2017-09-29T18:19:32.444Z,99.90
2017-09-29T18:22:00.051Z,99.90
2017-09-29T18:24:27.595Z,99.90
2017-09-29T18:26:55.121Z,99.90
2017-09-29T18:29:22.661Z,99.90
2017-09-29T18:31:50.175Z,99.90
2017-09-29T18:34:17.723Z,99.90
2017-09-29T18:36:45.278Z,99.90
2017-09-29T18:39:12.824Z,99.90
2017-09-29T18:41:48.111Z,99.90
2017-09-29T18:44:16.285Z,99.90
2017-09-29T18:46:53.911Z,99.90
2017-09-29T18:49:21.515Z,99.90
2017-09-29T18:51:49.031Z,99.90
2017-09-29T18:54:16.615Z,99.90
2017-09-29T18:56:44.196Z,99.90
2017-09-29T18:59:11.712Z,99.90
2017-09-29T19:01:39.219Z,99.90
2017-09-29T19:04:06.756Z,99.90
2017-09-29T19:06:34.270Z,99.90
2017-09-29T19:09:02.574Z,99.90
2017-09-29T19:11:30.091Z,99.90
2017-09-29T19:13:57.641Z,99.90
2017-09-29T19:16:25.377Z,99.90
2017-09-29T19:18:52.919Z,99.90
2017-09-29T19:21:20.439Z,99.90
2017-09-29T19:23:47.988Z,99.90
2017-09-29T19:26:15.516Z,99.90
2017-09-29T19:28:43.036Z,99.90
2017-09-29T19:31:11.335Z,99.90
2017-09-29T19:33:38.875Z,99.90
2017-09-29T19:36:07.184Z,99.90
2017-09-29T19:38:34.729Z,99.90
2017-09-29T19:41:02.252Z,99.90
2017-09-29T19:43:29.804Z,99.90
2017-09-29T19:45:57.325Z,99.90
2017-09-29T19:48:25.061Z,99.90
2017-09-29T19:50:53.349Z,99.90
2017-09-29T19:53:21.637Z,99.90
2017-09-29T19:55:49.167Z,99.90
2017-09-29T19:58:16.685Z,99.90
2017-09-29T20:00:44.247Z,99.90
2017-09-29T20:03:11.772Z,99.90
2017-09-29T20:05:39.298Z,99.90
2017-09-29T20:08:07.634Z,99.90
2017-09-29T20:10:35.270Z,99.90
2017-09-29T20:13:03.057Z,99.90
2017-09-29T20:15:30.604Z,99.90
2017-09-29T20:17:58.136Z,99.90
2017-09-29T20:20:26.449Z,99.90
2017-09-29T20:22:54.748Z,99.90
2017-09-29T20:25:22.344Z,99.90
2017-09-29T20:27:49.855Z,99.90
2017-09-29T20:30:17.422Z,99.90
2017-09-29T20:32:44.958Z,99.90
2017-09-29T20:35:12.510Z,99.90
2017-09-29T20:37:40.812Z,99.90
2017-09-29T20:40:08.375Z,99.90
2017-09-29T20:42:35.895Z,99.90
2017-09-29T20:45:04.239Z,99.90
2017-09-29T20:47:33.664Z,99.90
2017-09-29T20:50:01.332Z,99.90
2017-09-29T20:52:28.868Z,99.90
2017-09-29T20:54:56.795Z,99.90
2017-09-29T20:57:24.353Z,99.90
2017-09-29T20:59:52.290Z,99.90
2017-09-29T21:02:20.067Z,99.90
2017-09-29T21:04:48.356Z,99.90
2017-09-29T21:07:15.948Z,99.90
2017-09-29T21:09:43.521Z,99.90
2017-09-29T21:12:11.125Z,99.90
2017-09-29T21:14:39.529Z,99.90
2017-09-29T21:17:07.192Z,99.90
2017-09-29T21:19:34.791Z,99.90
2017-09-29T21:22:02.421Z,99.90
2017-09-29T21:24:29.993Z,99.90
2017-09-29T21:26:57.513Z,99.90
2017-09-29T21:29:25.982Z,99.90
2017-09-29T21:31:53.703Z,99.90
2017-09-29T21:34:21.252Z,99.90
2017-09-29T21:36:48.835Z,99.90
2017-09-29T21:39:16.380Z,99.90
2017-09-29T21:41:43.945Z,99.90
2017-09-29T21:44:11.508Z,99.90
2017-09-29T21:46:39.189Z,99.90
2017-09-29T21:49:06.767Z,99.90
2017-09-29T21:51:34.392Z,99.90
2017-09-29T21:54:02.170Z,99.90
2017-09-29T21:56:30.489Z,99.90
2017-09-29T21:58:58.104Z,99.90
2017-09-29T22:01:26.439Z,99.90
2017-09-29T22:03:54.143Z,99.90
2017-09-29T22:06:22.477Z,99.90
2017-09-29T22:08:49.999Z,99.90
2017-09-29T22:11:17.528Z,99.90
2017-09-29T22:13:45.117Z,99.90
2017-09-29T22:16:13.623Z,99.90
2017-09-29T22:18:41.200Z,99.90
2017-09-29T22:21:08.870Z,99.90
2017-09-29T22:23:36.403Z,99.90
2017-09-29T22:26:03.951Z,99.90
2017-09-29T22:28:31.641Z,99.90
2017-09-29T22:30:59.207Z,99.90
2017-09-29T22:33:26.806Z,99.90
2017-09-29T22:35:54.347Z,99.90
2017-09-29T22:38:21.895Z,99.90
2017-09-29T22:40:49.458Z,99.90
2017-09-29T22:43:17.320Z,99.90
2017-09-29T22:45:44.838Z,99.90
2017-09-29T22:48:13.147Z,99.90
2017-09-29T22:50:40.660Z,99.90
2017-09-29T22:53:08.241Z,99.90
2017-09-29T22:55:36.544Z,99.90
2017-09-29T22:58:04.108Z,99.90
2017-09-29T23:00:31.637Z,99.90
2017-09-29T23:02:59.165Z,99.90
2017-09-29T23:05:26.733Z,99.90
2017-09-29T23:07:54.260Z,99.90
2017-09-29T23:10:21.801Z,99.90
2017-09-29T23:12:49.364Z,99.90
2017-09-29T23:15:17.811Z,99.90
2017-09-29T23:17:46.107Z,99.90
2017-09-29T23:20:13.623Z,99.90
2017-09-29T23:22:41.173Z,99.90
2017-09-29T23:25:08.696Z,99.90
2017-09-29T23:27:36.300Z,99.90
2017-09-29T23:30:03.835Z,99.90
2017-09-29T23:32:31.356Z,99.90
2017-09-29T23:34:58.900Z,99.90
2017-09-29T23:37:26.480Z,99.90
2017-09-29T23:39:54.788Z,99.90
2017-09-29T23:42:22.315Z,99.90
2017-09-29T23:44:50.628Z,99.90
2017-09-29T23:47:18.184Z,99.90
2017-09-29T23:49:45.722Z,99.90
2017-09-29T23:52:13.288Z,99.90
2017-09-29T23:54:40.808Z,99.90
2017-09-29T23:57:08.332Z,99.90
2017-09-29T23:59:35.880Z,99.90
